Tiempo atmosférico en la estación meteorológica de Córdoba Aeropuerto, Córdoba (90 m.)



Fecha
DESCASC
Temp. máxima en grados centígrados (hora)
DESCASC
Temp. mínima en grados centígrados (hora)
DESCASC
Temp. media en grados centígrados
DESCASC
Racha de viento máxima en m/sg (hora)
DESCASC
Velocidad máxima media en intervalos de 10 minutos(hora)
DESCASC
Precipitaciones diarias en mm
DESCASC
Precipitaciones de 00:00 a 06:00 en mm
DESCASC
Precipitaciones de 06:00 a 12:00 en mm
DESCASC
Precipitaciones de 12:00 a 18:00 en mm
DESCASC
Precipitaciones de 18:00 a 24:00 en mm
DESCASC
31-05-2020 31.6 (14:10) 15.3 (06:20) 23.5 15 (15:50) 10.83 (15:50) 2.3 0 0 2.3 0
30-05-2020 35.8 (18:30) 16.5 (06:40) 26.1 9.17 (20:10) 6.39 (20:00) 0 0 0 0 0
29-05-2020 36 (18:10) 16.2 (07:10) 26.1 8.33 (23:20) 5.28 (23:20) 0 0 0 0 0
28-05-2020 34.9 (18:00) 15.3 (00:00) 25.1 7.78 (12:30) 4.72 (21:30) 0 0 0 0 0
27-05-2020 34.7 (18:50) 15.6 (00:00) 25.2 10.83 (13:40) 5.56 (19:50) 0 0 0 0 0
26-05-2020 35.6 (17:10) 15.3 (00:00) 25.4 7.22 (16:00) 5.28 (19:40) 0 0 0 0 0
25-05-2020 36.4 (18:00) 15.9 (00:00) 26.2 7.78 (20:40) 5.56 (20:30) 0 0 0 0 0
24-05-2020 37 (16:30) 16.8 (00:00) 26.9 8.33 (17:30) 5 (17:20) 0 0 0 0 0
23-05-2020 38 (17:40) 16.4 (00:00) 27.2 -- (--) -- (--) 0 0 0 0 0
22-05-2020 37.3 (17:40) 16.6 (00:00) 26.9 6.11 (11:20) 4.17 (11:10) 0 0 0 0 0
21-05-2020 36.3 (17:30) 15.8 (00:00) 26 6.67 (17:40) 3.61 (17:40) 0 0 0 0 0
20-05-2020 35 (17:30) 14.6 (00:00) 24.8 7.78 (17:50) 4.44 (17:20) 0 0 0 0 0
19-05-2020 33.7 (18:10) 12.9 (00:00) 23.3 7.22 (14:20) 3.33 (09:40) 0 0 0 0 0
18-05-2020 30.7 (18:10) 11.5 (00:00) 21.1 5.83 (15:20) 3.61 (15:20) 0 0 0 0 0
17-05-2020 26.9 (16:00) 15.3 (00:00) 21.1 9.72 (16:30) 6.94 (16:30) 0.3 0.3 0 0 0
16-05-2020 25.8 (17:00) 10.5 (00:00) 18.1 10.83 (14:40) 7.22 (19:30) 0 0 0 0 0
15-05-2020 23.5 (14:20) 9.4 (00:00) 16.4 15 (14:50) 8.61 (14:50) 0 0 0 0 0
14-05-2020 20.6 (17:10) 11.5 (00:00) 16.1 21.11 (18:00) 11.67 (18:10) 1 0 0.9 0.1 0
13-05-2020 23.3 (16:30) 10.7 (00:00) 17 13.33 (20:10) 7.78 (20:40) 3.4 0 0 0 3.4
12-05-2020 20.3 (15:50) 13.3 (00:00) 16.8 13.33 (09:30) 6.11 (09:30) 1.1 0 0.5 0.6 0
11-05-2020 23.3 (16:50) 14.3 (00:00) 18.8 14.44 (16:50) 8.89 (16:10) 2.3 0 1.6 0.7 0
10-05-2020 22.3 (15:40) 12.5 (00:00) 17.4 13.33 (16:10) 8.06 (16:20) 9.3 5.3 2.7 0.1 1.2
09-05-2020 24.7 (16:20) 15.6 (00:00) 20.2 11.67 (20:10) 7.78 (20:20) 0.5 0 0 0 0.5
08-05-2020 30 (15:30) 12.6 (00:00) 21.3 10.28 (16:20) 6.67 (18:10) 0 0 0 0 0
07-05-2020 30.6 (16:40) 14.3 (00:00) 22.5 8.33 (18:10) 4.72 (17:30) 0 0 0 0 0
06-05-2020 31.1 (18:20) 11.4 (00:00) 21.3 6.67 (18:20) 3.61 (12:50) 0 0 0 0 0
05-05-2020 28.4 (18:00) 16.7 (00:00) 22.6 6.67 (17:40) 3.89 (17:00) 0.2 0 0.2 0 0

Gráficas

Temp. máximas Temp. mínimas Temp. medias Precipitaciones Rachas de viento máximas Velocidades máximas media en intervalos de 10 minutos

Datos horarios

Fecha y hora oficial Temperatura (ºC) Velocidad del viento (km/h) Dirección del viento Racha (km/h) Dirección de racha Precipitación (mm) Presión (hPa) Tendencia (hPa) Humedad (%)
2020-06-03 23:00:00 22.9 20 Sudoeste 39 Sudoeste 0 999 1.9 53
2020-06-03 22:00:00 24.9 23 Sudoeste 42 Oeste 0 998.1 0.7 43
2020-06-03 21:00:00 27.8 22 Oeste 37 Oeste 0 997.6 -0.3 39
2020-06-03 20:00:00 29.9 22 Sudoeste 37 Sudoeste 0 997.1 -1.6 32
2020-06-03 19:00:00 30.4 25 Sudoeste 41 Oeste 0 997.4 -2.2 32
2020-06-03 18:00:00 31.4 24 Sudoeste 35 Sudoeste 0 997.9 -2.5 30
2020-06-03 17:00:00 31.3 19 Oeste 33 Oeste 0 998.7 -2.4 30
2020-06-03 16:00:00 30.8 21 Sudoeste 33 Sudoeste 0 999.6 -2.1 31
2020-06-03 15:00:00 29.7 16 Oeste 32 Sudoeste 0 1000.4 -1.7 32
2020-06-03 14:00:00 28.4 16 Sudoeste 30 Oeste 0 1001.1 -- 38
2020-06-03 13:00:00 26.8 13 Oeste 24 Sudoeste 0 1001.7 -- 42
2020-06-03 12:00:00 24.9 7 Oeste 30 Sudoeste 0 1002.1 -- 53
2020-06-03 11:00:00 22.4 12 Oeste 22 Sudoeste 0 1002.4 -- 64
2020-06-03 10:00:00 19.8 11 Oeste 18 Sudoeste 0 1003.1 -- 78
2020-06-03 09:00:00 18.3 12 Sudoeste 21 Oeste 0 1003 -- 86
2020-06-03 08:00:00 17 9 Sudoeste 15 Sudoeste 0 1002.9 -- 86
2020-06-03 07:00:00 16.4 7 Sudoeste 9 Sudoeste 0 1002.5 -- 85
2020-06-03 06:00:00 16.6 5 Sudoeste 9 Sudoeste 0 1002.4 -- 84
2020-06-03 05:00:00 17.2 8 Sudoeste 11 Sudoeste 0 1002.4 -- 79
2020-06-03 04:00:00 17.9 9 Sudoeste 18 Sudoeste 0 1002.6 -- 77
2020-06-03 03:00:00 19.1 13 Sudoeste 18 Sudoeste 0 1003 -- 70
2020-06-03 02:00:00 19.8 5 Sudoeste 13 Sudoeste 0 1003.4 -- 65
2020-06-03 01:00:00 21.2 6 Sudoeste 18 Sudoeste 0 1003.5 -- 61
2020-06-03 00:00:00 22.4 12 Sudoeste 17 Oeste 0 1003.1 -- 58
2020-06-02 23:00:00 24.1 13 Oeste 24 Sudoeste 0 1002.7 -- 51
2020-06-02 22:00:00 25.5 14 Sudoeste 24 Sudoeste 0 1002 -- 48
2020-06-02 21:00:00 27.7 14 Oeste 26 Oeste 0 1001.6 -- 40
2020-06-02 20:00:00 29.2 15 Oeste 30 Sudoeste 0 1001.5 -- 34
2020-06-02 19:00:00 30 20 Sudoeste 28 Sudoeste 0 1001.6 -- 33
2020-06-02 18:00:00 30.4 19 Oeste 32 Oeste 0 1002 -- 30
2020-06-02 17:00:00 31 19 Oeste 33 Oeste 0 1002.4 -- 28
2020-06-02 16:00:00 29.9 14 Oeste 28 Oeste 0 1002.9 -- 29
2020-06-02 15:00:00 29.4 15 Oeste 28 Sudoeste 0 1003.5 -- 25
2020-06-02 14:00:00 29.2 11 Oeste 26 Oeste 0 1004 -- 27
2020-06-02 13:00:00 27.6 8 Oeste 18 Oeste 0 1004.4 -- 34
2020-06-02 12:00:00 26.9 4 Sudoeste 13 Este 0 1004.9 -- 36
2020-06-02 11:00:00 24.5 5 Este 15 Nordeste 0 1005.3 -- 53
2020-06-02 10:00:00 21.7 5 Este 9 Sudeste 0 1005.3 -- 65
2020-06-02 09:00:00 18.7 2 Sudeste 5 Este 0 1004.7 -- 80
2020-06-02 08:00:00 15.4 2 Este 8 Sudoeste 0 1004.5 -- 91
2020-06-02 07:00:00 15.3 4 Norte 5 Norte 0 1004.3 -- 90
2020-06-02 06:00:00 16 3 Sudeste 8 Este 0 1003.8 -- 86
2020-06-02 05:00:00 16.9 3 Sur 9 Sur 0 1003.8 -- 83
2020-06-02 04:00:00 17.6 4 Sudoeste 11 Sur 0 1004.1 -- 82
2020-06-02 03:00:00 18.9 7 Oeste 18 Oeste 0 1004.5 -- 78
2020-06-02 02:00:00 19.8 13 Sudoeste 26 Sudoeste 0 1004.7 -- 73
2020-06-02 01:00:00 20.8 13 Sudoeste 18 Sudoeste 0 1004.3 -- 71
2020-06-02 00:00:00 21.3 10 Sudoeste 17 Oeste 0 1003.9 -- 70
2020-06-01 23:00:00 23.3 12 Sudoeste 21 Oeste 0 1003.3 -- 62
2020-06-01 22:00:00 24.7 13 Oeste 21 Oeste 0 1002.4 -- 55
2020-06-01 21:00:00 30.1 2 Noroeste 11 Noroeste 0 1001.6 -- 35
2020-06-01 20:00:00 30.5 5 Oeste 15 Oeste 0 1001.7 -- 31
2020-06-01 19:00:00 30.6 6 Oeste 21 Oeste 0 1002.1 -- 30
2020-06-01 18:00:00 30.2 10 Oeste 24 Sudoeste 0 1002.6 -- 32
2020-06-01 17:00:00 29.8 13 Oeste 26 Sudoeste 0 1003 -- 33
2020-06-01 16:00:00 28.8 12 Oeste 22 Oeste 0 1003.5 -- 35
2020-06-01 15:00:00 26.9 12 Oeste 21 Oeste 0 1004 -- 41
2020-06-01 14:00:00 26.7 10 Oeste 22 Oeste 0 1004.2 -- 41
2020-06-01 13:00:00 25.9 12 Oeste 17 Oeste 0 1004.3 -- 45
2020-06-01 12:00:00 25.9 7 Oeste 18 Noroeste 0 1004.1 -- 42
2020-06-01 11:00:00 24.2 6 Sudeste 15 Este 0 1004.1 -- 50
2020-06-01 10:00:00 21.4 11 Este 17 Nordeste 0 1003.9 -- 68
2020-06-01 09:00:00 18.8 8 Este 11 Este 0 1003.6 -- 81
2020-06-01 08:00:00 15.8 5 Este 9 Sudeste 0 1003.5 -- 90
2020-06-01 07:00:00 14.6 2 Sudeste 8 Sudeste 0 1003.2 -- 93
2020-06-01 06:00:00 15.1 6 Este 15 Este 0 1002.8 -- 94
2020-06-01 05:00:00 15.5 10 Este 17 Este 0 1002.8 -- 94
2020-06-01 04:00:00 15.6 13 Este 18 Este 0 1002.9 -- 92
2020-06-01 03:00:00 16.1 12 Este 17 Este 0 1002.9 -- 92
2020-06-01 02:00:00 16.3 10 Este 13 Este 0 1003.2 -- 91
2020-06-01 01:00:00 16.9 7 Este 11 Este 0 1003.4 -- 91
2020-06-01 00:00:00 17.3 3 Este 8 Este 0 1003.1 -- 89
2020-05-31 23:00:00 17.8 4 Norte 17 Sur 0 1002.7 -- 88
2020-05-31 22:00:00 19 12 Sudeste 17 Sudeste 0 1002.1 -- 84
2020-05-31 21:00:00 19.7 6 Sur 11 Sur 0 1001.7 -- 83
2020-05-31 20:00:00 19.7 7 Oeste 15 Oeste 0 1001.3 -- 83
2020-05-31 19:00:00 19.7 5 Noroeste 22 Este 0 1001.5 -- 82
2020-05-31 18:00:00 18.2 16 Nordeste 24 Norte 1.8 1000.2 -- 87
2020-05-31 17:00:00 19.5 14 Sudoeste 46 Sudoeste 0.5 1003.1 -- 76
2020-05-31 16:00:00 25.7 37 Sudoeste 54 Sur 0 1002.1 -- 35
2020-05-31 15:00:00 29.3 9 Oeste 24 Oeste 0 1000.5 -- 22
2020-05-31 14:00:00 31.3 10 Oeste 18 Oeste 0 1000 -- 19
2020-05-31 13:00:00 30.4 7 Sudoeste 13 Sudoeste 0 999.9 -- 22
2020-05-31 12:00:00 27.6 5 Oeste 11 Oeste 0 1000.7 -- 26
2020-05-31 11:00:00 24.8 3 Sudoeste 13 Nordeste 0 1000.9 -- 32
2020-05-31 10:00:00 21.5 9 Este 11 Este 0 1000.8 -- 38
2020-05-31 09:00:00 19.9 6 Este 9 Este 0 1000.7 -- 48
2020-05-31 08:00:00 16.6 3 Sudeste 8 Sur 0 1000.4 -- 66
2020-05-31 07:00:00 15.8 3 Este 5 Sur 0 1000.1 -- 68
2020-05-31 06:00:00 15.5 4 Sudoeste 9 Sudoeste 0 1000.2 -- 67
2020-05-31 05:00:00 16.9 7 Sur 9 Sudoeste 0 1000.3 -- 59
2020-05-31 04:00:00 17.8 5 Sur 9 Sur 0 1000.4 -- 53
2020-05-31 03:00:00 17.8 9 Sudoeste -- -- -- 1000.5 -- 52
2020-05-31 02:00:00 18.9 8 Sudoeste 11 Sur 0 1001.1 -- 46
2020-05-31 01:00:00 20.7 10 Sudoeste 17 Sudoeste 0 1001.1 -- 40
2020-05-31 00:00:00 22.1 11 Sudoeste 13 Oeste 0 1000.8 -- 37
2020-05-30 23:00:00 25.1 9 Oeste 22 Oeste 0 1000.1 -- 26
2020-05-30 22:00:00 27.2 12 Oeste 22 Oeste 0 999.3 -- 20
2020-05-30 21:00:00 29.4 12 Oeste 33 Sudoeste 0 998.5 -- 20
2020-05-30 20:00:00 33 23 Sudoeste 32 Sudoeste 0 998 -- 19
2020-05-30 19:00:00 35.3 8 Sur 17 Oeste 0 997.8 -- 17
2020-05-30 18:00:00 35.5 6 Sudeste 17 Sur 0 998.1 -- 16
2020-05-30 17:00:00 35 9 Oeste 18 Oeste 0 998.7 -- 22
2020-05-30 16:00:00 33.9 7 Noroeste 22 Sudoeste 0 999.4 -- 23
2020-05-30 15:00:00 33.1 9 Oeste 21 Este 0 1000.4 -- 24
2020-05-30 14:00:00 31.3 6 Noroeste 21 Nordeste 0 1001.1 -- 27
2020-05-30 13:00:00 30.2 6 Este 21 Nordeste 0 1001.8 -- 28
2020-05-30 12:00:00 28.4 8 Nordeste 17 Nordeste 0 1002.3 -- 31
2020-05-30 11:00:00 26.6 7 Nordeste 15 Nordeste 0 1002.7 -- 35
2020-05-30 10:00:00 24.4 11 Este 15 Este 0 1003 -- 43
2020-05-30 09:00:00 22.1 5 Nordeste 9 Este 0 1003.1 -- 49
2020-05-30 08:00:00 18.5 5 Sudeste 9 Sudeste 0 1003 -- 59
2020-05-30 07:00:00 16.5 2 Noroeste 9 Sur 0 1002.4 -- 71
2020-05-30 06:00:00 17.8 7 Sur 9 Sur 0 1002.3 -- 62
2020-05-30 05:00:00 18.4 5 Sur 8 Sur 0 1002.4 -- 62
2020-05-30 04:00:00 19.1 7 Oeste 13 Sudoeste 0 1002.6 -- 61
2020-05-30 03:00:00 20.9 12 Sudoeste -- -- -- 1002.5 -- 44
2020-05-30 02:00:00 22.2 14 Sudoeste 24 Oeste 0 1002.1 -- 47
2020-05-30 01:00:00 23.4 11 Sudoeste 21 Sudoeste 0 1001.8 -- 52
2020-05-30 00:00:00 25.4 10 Sudoeste 30 Sur 0 1001.3 -- 42
2020-05-29 23:00:00 26.3 12 Sur 24 Sudoeste 0 1000.1 -- 37
2020-05-29 22:00:00 27.4 9 Noroeste 11 Noroeste 0 999.1 -- 46
2020-05-29 21:00:00 33.7 5 Sudoeste 11 Oeste 0 998.8 -- 25
2020-05-29 20:00:00 34.8 8 Sudoeste 13 Sudoeste 0 998.6 -- 22
2020-05-29 19:00:00 35.5 7 Sudoeste 17 Sudoeste 0 998.9 -- 20
2020-05-29 18:00:00 35.7 6 Este 17 Nordeste 0 999.4 -- 20
2020-05-29 17:00:00 34.8 5 Nordeste 21 Sur 0 999.9 -- 20
2020-05-29 16:00:00 34.1 9 Noroeste 21 Noroeste 0 1000.8 -- 22
2020-05-29 15:00:00 32.9 9 Nordeste 18 Este 0 1001.7 -- 24
2020-05-29 14:00:00 31.9 5 Sur 18 Este 0 1002.7 -- 26
2020-05-29 13:00:00 30.5 8 Este 18 Este 0 1003.6 -- 27
2020-05-29 12:00:00 28.7 11 Este 22 Este 0 1004.4 -- 30
2020-05-29 11:00:00 26.5 8 Este 15 Este 0 1005 -- 40
2020-05-29 10:00:00 23.9 9 Este 15 Este 0 1005.5 -- 49
2020-05-29 09:00:00 21.1 9 Este 13 Este 0 1005.4 -- 60
2020-05-29 08:00:00 18.1 6 Este 9 Este 0 1005.4 -- 76
2020-05-29 07:00:00 16.3 2 Este 5 Sudeste 0 1005.3 -- 79
2020-05-29 06:00:00 16.9 4 Este 5 Este 0 1005.2 -- 77
2020-05-29 05:00:00 17.4 0 Calma 5 Sudeste 0 1005.5 -- 80
2020-05-29 04:00:00 18.5 0 Calma 8 Sur 0 1006.1 -- 69
2020-05-29 03:00:00 18.7 6 Oeste -- -- -- 1006.4 -- 69
2020-05-29 02:00:00 19.5 9 Oeste 15 Sudoeste 0 1006.5 -- 66
2020-05-29 01:00:00 20.9 10 Sudoeste 18 Sudoeste 0 1006.5 -- 56
2020-05-29 00:00:00 22.8 12 Sudoeste 18 Sudoeste 0 1006 -- 49
2020-05-28 23:00:00 24.7 10 Sudoeste 21 Oeste 0 1005.2 -- 42
2020-05-28 22:00:00 26.8 12 Oeste 26 Sudoeste 0 1004.2 -- 36
2020-05-28 21:00:00 32 8 Sudoeste 15 Oeste 0 1003.4 -0.6 25
2020-05-28 20:00:00 34.2 8 Sur 13 Sur 0 1003.2 -1.3 18
2020-05-28 19:00:00 34.7 8 Sudoeste 22 Este 0 1003.6 -1.7 16
2020-05-28 18:00:00 34.8 7 Sudeste 18 Este 0 1004 -- 15
2020-05-28 17:00:00 34.5 5 Noroeste 18 Sudeste 0 1004.5 -- 16
2020-05-28 16:00:00 34.2 9 Este 22 Este 0 1005.3 -- 19
2020-05-28 15:00:00 32.9 10 Nordeste 22 Nordeste 0 1006 -- 19
2020-05-28 14:00:00 32.1 13 Este 26 Este 0 1006.7 -- 20
2020-05-28 13:00:00 30.2 13 Nordeste 28 Este 0 1007.5 -- 23
2020-05-28 12:00:00 28.3 11 Este 24 Este 0 1008.1 -- 31
2020-05-28 11:00:00 26.6 13 Nordeste 22 Este 0 1008.7 -- 34
2020-05-28 10:00:00 23.6 5 Este 9 Este 0 1008.8 -- 50
2020-05-28 09:00:00 20 3 Norte 8 Sur 0 1008.8 -- 65
2020-05-28 08:00:00 16.4 3 Sur 5 Sur 0 1008.8 -- 79
2020-05-28 07:00:00 15.3 3 Sudoeste 11 Sur 0 1008.6 -- 81
2020-05-28 06:00:00 16.6 6 Sur 9 Sudoeste 0 1008.5 -- 77
2020-05-28 05:00:00 16.9 6 Sudoeste 9 Sudoeste 0 1008.7 -- 77
2020-05-28 04:00:00 17.9 6 Sur 11 Sur 0 1009.2 -- 71
2020-05-28 03:00:00 18.7 6 Sudoeste -- -- -- 1009.2 -- 68
2020-05-28 02:00:00 19.9 6 Sudoeste 15 Sudoeste 0 1009.6 -- 61
2020-05-28 01:00:00 20.7 9 Sudoeste 15 Sudoeste 0 1010 -- 57
2020-05-28 00:00:00 22.8 16 Sudoeste 28 Sudoeste 0 1009.9 -- 48
2020-05-27 23:00:00 24 15 Sur 24 Sudoeste 0 1009.2 -- 43
2020-05-27 22:00:00 25.2 12 Sudoeste 22 Sudoeste 0 1007.8 -- 40
2020-05-27 21:00:00 29.2 12 Sudoeste 24 Sudoeste 0 1006.8 -- 31
2020-05-27 20:00:00 32.4 18 Sudoeste 32 Sudoeste 0 1005.9 -- 27
2020-05-27 19:00:00 34.3 6 Sudoeste 18 Nordeste 0 1005.7 -- 23
2020-05-27 18:00:00 33.9 6 Oeste 21 Este 0 1006.1 -- 22
2020-05-27 17:00:00 34.4 8 Sudeste 21 Este 0 1006.6 -- 22
2020-05-27 16:00:00 33.4 6 Este 21 Nordeste 0 1007.2 -- 22
2020-05-27 15:00:00 32.8 8 Nordeste 21 Este 0 1007.9 -- 23
2020-05-27 14:00:00 31.7 8 Nordeste 39 Nordeste 0 1008.5 -- 24
2020-05-27 13:00:00 30.7 10 Sudeste 32 Este 0 1009.1 -- 28
2020-05-27 12:00:00 28.4 12 Nordeste 21 Nordeste 0 1009.4 -- 33
2020-05-27 11:00:00 25.6 6 Este 13 Nordeste 0 1009.7 -- 44
2020-05-27 10:00:00 23.1 6 Sur 11 Sur 0 1009.8 -- 55
2020-05-27 09:00:00 20.8 3 Este 9 Sur 0 1009.6 -- 66
2020-05-27 08:00:00 15.8 5 Sur 8 Sur 0 1009.4 -- 83
2020-05-27 07:00:00 16.4 0 Calma 5 Sur 0 1009.4 -- 80
2020-05-27 06:00:00 17.3 4 Sudoeste 5 Sur 0 1009.3 -- 75
2020-05-27 05:00:00 17.9 3 Sudeste 8 Sur 0 1009.2 -- 74
2020-05-27 04:00:00 18.5 3 Sudoeste 11 Sur 0 1009 -- 70
2020-05-27 03:00:00 19.3 9 Sudoeste -- -- -- 1009.4 -- 65
2020-05-27 02:00:00 19.5 10 Oeste 13 Sudoeste 0 1009.6 -- 64
2020-05-27 01:00:00 21 8 Sudoeste 13 Oeste 0 1009.5 -- 56
2020-05-27 00:00:00 22.1 8 Sudoeste 17 Sudoeste 0 1009.4 -- 51
2020-05-26 23:00:00 23.6 8 Oeste 21 Sudoeste 0 1009 -- 47
2020-05-26 22:00:00 25.2 11 Sudoeste 24 Oeste 0 1007.8 -- 40
2020-05-26 21:00:00 28.6 13 Sudoeste 26 Sur 0 1006.8 -- 30
2020-05-26 20:00:00 33 16 Sur 26 Sur 0 1006.2 -- 23
2020-05-26 19:00:00 35.2 9 Nordeste 21 Nordeste 0 1006.1 -- 15
2020-05-26 18:00:00 35.4 8 Este 21 Nordeste 0 1006.6 -- 15
2020-05-26 17:00:00 35.3 10 Este 24 Este 0 1007.2 -- 14
2020-05-26 16:00:00 34.4 11 Nordeste 26 Nordeste 0 1007.8 -- 16
2020-05-26 15:00:00 33.5 10 Este 22 Nordeste 0 1008.7 -- 19
2020-05-26 14:00:00 32 9 Este 18 Este 0 1009.7 -- 21
2020-05-26 13:00:00 30.6 7 Este 17 Nordeste 0 1010.2 -- 26
2020-05-26 12:00:00 28.3 6 Nordeste 15 Este 0 1010.6 -- 33
2020-05-26 11:00:00 26.3 4 Sudeste 11 Sur 0 1010.9 -- 40
2020-05-26 10:00:00 23.6 4 Noroeste 9 Nordeste 0 1011.1 -- 45
2020-05-26 09:00:00 20.8 3 Sudeste -- -- 0 1011 -- 57
2020-05-26 08:00:00 16.5 2 Sudoeste 9 Sur 0 1010.9 -- 78
2020-05-26 07:00:00 15.5 6 Sudoeste 8 Sudoeste 0 1010.5 -- 80
2020-05-26 06:00:00 16.6 0 Calma 5 Sudeste 0 1010.1 -- 78
2020-05-26 05:00:00 16.8 0 Calma 13 Sudoeste 0 1010.1 -- 75
2020-05-26 04:00:00 17.9 3 Sur 5 Sur 0 1010.2 -- 70
2020-05-26 03:00:00 18.1 3 Sudoeste 13 Sur 0 1010.5 -- 70
2020-05-26 02:00:00 19.2 3 Oeste 11 Oeste 0 1010.7 -- 67
2020-05-26 01:00:00 20.8 7 Sur 15 Sudoeste 0 1011.1 -- 61
2020-05-26 00:00:00 22.4 9 Sudoeste 17 Sudoeste 0 1010.9 -- 56
2020-05-25 23:00:00 24.5 9 Sudoeste 21 Sudoeste 0 1009.9 -- 49
2020-05-25 22:00:00 26.6 13 Sudoeste 21 Sur 0 1008.7 -- 37
2020-05-25 21:00:00 29.8 8 Sur 28 Sur 0 1007.6 -- 28
2020-05-25 20:00:00 32 13 Sudoeste 26 Sudoeste 0 1007 -- 24
2020-05-25 19:00:00 34.8 10 Sudoeste 18 Sudoeste 0 1006.6 -- 18
2020-05-25 18:00:00 36.4 11 Sudoeste 18 Sudoeste 0 1007 -- 18
2020-05-25 17:00:00 36 7 Oeste 21 Sudoeste 0 1007.6 -- 19
2020-05-25 16:00:00 35.1 9 Sudoeste 18 Sudoeste 0 1008.4 -- 21
2020-05-25 15:00:00 33.9 8 Sudoeste 17 Sudoeste 0 1009.4 -- 23
2020-05-25 14:00:00 32.5 10 Nordeste 21 Nordeste 0 1010.3 -- 25
2020-05-25 13:00:00 30.8 5 Este 15 Nordeste 0 1011.1 -- 29
2020-05-25 12:00:00 28.9 7 Oeste 15 Oeste 0 1011.6 -- 33
2020-05-25 11:00:00 26.7 5 Sur 13 Sudoeste 0 1011.9 -- 40
2020-05-25 10:00:00 24.8 3 Oeste 9 Sudeste 0 1012.2 -- 44
2020-05-25 09:00:00 21.8 3 Sudeste 5 Sur 0 1012.3 -- 55
2020-05-25 08:00:00 17.7 3 Sudeste 5 Sur 0 1011.9 -- 73
2020-05-25 07:00:00 15.9 4 Oeste 5 Noroeste 0 1011.6 -- 77
2020-05-25 06:00:00 16.4 0 Calma 5 Oeste 0 1011.6 -- 73
2020-05-25 05:00:00 16.6 4 Sur 11 Sur 0 1011.6 -- 71
2020-05-25 04:00:00 18.3 0 Calma 8 Sudoeste 0 1011.7 -- 63
2020-05-25 03:00:00 19 6 Sudoeste 9 Oeste 0 1011.9 -- 59
2020-05-25 02:00:00 20 6 Oeste 15 Oeste 0 1011.8 -- 53
2020-05-25 01:00:00 20.5 8 Oeste 15 Oeste 0 1011.9 -- 50
2020-05-25 00:00:00 22.4 13 Oeste 18 Oeste 0 1011.8 -- 41
2020-05-24 23:00:00 24 10 Sudoeste 17 Sudoeste 0 1011 -- 37
2020-05-24 22:00:00 26.6 10 Oeste 26 Oeste 0 1010.1 -- 29
2020-05-24 21:00:00 29 10 Sudoeste 15 Oeste 0 1009.1 -- 30
2020-05-24 20:00:00 32.2 11 Sudoeste 21 Sudoeste 0 1008.9 -- 23
2020-05-24 19:00:00 35.7 12 Oeste 24 Oeste 0 1009 -- 16
2020-05-24 18:00:00 36.5 16 Sudoeste 30 Sudoeste 0 1009.3 -- 14
2020-05-24 17:00:00 36.7 9 Oeste 26 Oeste 0 1009.5 -- 15
2020-05-24 16:00:00 36.3 12 Oeste 22 Oeste 0 1010 -- 16
2020-05-24 15:00:00 35.9 12 Oeste 21 Sudoeste 0 1010.6 -- 16
2020-05-24 14:00:00 34.7 7 Sur 24 Sudoeste 0 1011.2 -- 18
2020-05-24 13:00:00 33.5 11 Sur 26 Sur 0 1011.7 -- 21
2020-05-24 12:00:00 31.9 9 Sudeste 18 Sudeste 0 1012.1 -- 24
2020-05-24 11:00:00 29.2 5 Nordeste 11 Nordeste 0 1012.2 -- 30
2020-05-24 10:00:00 26.4 5 Nordeste 11 Este 0 1012.4 -- 41
2020-05-24 09:00:00 22.8 4 Este 8 Este 0 1011.9 -- 56
2020-05-24 08:00:00 18.3 -- -- -- -- 0 1011.5 -- 75
2020-05-24 07:00:00 16.8 4 Oeste 8 Sur 0 1010.9 -- 77
2020-05-24 06:00:00 17.8 5 Sudoeste 9 Sur 0 1010.5 -- 72
2020-05-24 05:00:00 18 8 Sudoeste 9 Sudoeste 0 1010.6 -- 74
2020-05-24 04:00:00 19.6 6 Sudoeste 8 Sudoeste 0 1010.8 -- 66
2020-05-24 03:00:00 21.4 3 Sur 8 Noroeste 0 1011.1 -- 63
2020-05-24 02:00:00 22.2 0 Calma 5 Sudeste 0 1011.1 -- 60
2020-05-24 01:00:00 24.1 4 Oeste 9 Norte 0 1011 -- 49
2020-05-24 00:00:00 25.5 8 Sur 22 Sudeste 0 1010.4 -- 48
2020-05-23 23:00:00 26.7 6 Sur 9 Sur 0 1009.6 -- 50
2020-05-23 22:00:00 28.3 8 Oeste 11 Noroeste 0 1008.9 -- 43
2020-05-23 21:00:00 34.7 7 Sudoeste 11 Sudoeste 0 1008.5 -- 30
2020-05-23 20:00:00 36.6 7 Sudoeste 15 Sudoeste 0 1008.5 -- 21
2020-05-23 19:00:00 37.5 8 Sudoeste 17 Sur 0 1008.7 -- 19
2020-05-23 18:00:00 37.7 6 Sudoeste 18 Oeste 0 1009.1 -- 18
2020-05-23 17:00:00 37.6 6 Sudoeste 22 Sudoeste 0 1009.7 -- 17
2020-05-23 16:00:00 37.2 5 Sudoeste 17 Oeste 0 1010.3 -- 18
2020-05-23 15:00:00 36 5 Norte 15 Sudoeste 0 1011.2 -- 20
2020-05-23 14:00:00 34.9 5 Sudeste 15 Nordeste 0 1012 -- 25
2020-05-23 13:00:00 33.2 7 Este 15 Este 0 1012.7 -- 29
2020-05-23 12:00:00 30.9 9 Este 15 Este 0 1013.3 -- 34
2020-05-23 11:00:00 27.9 11 Este 18 Este 0 1013.4 -- 41
2020-05-23 10:00:00 25.2 11 Este 17 Este 0 1013.5 -- 49
2020-05-23 09:00:00 21.6 6 Este -- -- 0 1013 -- 67
2020-05-23 08:00:00 17.6 -- -- -- -- 0 1012.6 -- 80
2020-05-23 07:00:00 16.6 2 Sur 5 Sur 0 1012 -- 81
2020-05-23 06:00:00 17.4 0 Calma -- -- -- 1011.7 -- 78
2020-05-23 05:00:00 18.3 4 Sur 5 Sur 0 1011.6 -- 77
2020-05-23 04:00:00 19 3 Sur -- -- 0 1011.4 -- 72
2020-05-23 03:00:00 20.2 3 Nordeste 5 Nordeste 0 1011.4 -- 67
2020-05-23 02:00:00 21.2 4 Sudoeste 13 Noroeste 0 1011.4 -- 61
2020-05-23 01:00:00 22.1 10 Sur 18 Sur 0 1011 -- 58
2020-05-23 00:00:00 23.7 7 Sudoeste 13 Oeste 0 1010.4 -- 56
2020-05-22 23:00:00 24.6 11 Oeste 13 Oeste 0 1010 -- 54
2020-05-22 22:00:00 27.9 11 Sudoeste 13 Sudoeste 0 1009.3 -- 44
2020-05-22 21:00:00 32.6 10 Oeste 15 Oeste 0 1008.9 -- 31
2020-05-22 20:00:00 35.2 11 Oeste 21 Oeste 0 1008.4 -- 25
2020-05-22 19:00:00 36.4 9 Oeste 21 Oeste 0 1008.3 -- 20
2020-05-22 18:00:00 37 9 Oeste 22 Sur 0 1008.6 -- 20
2020-05-22 17:00:00 36.8 8 Nordeste 22 Norte 0 1009.1 -- 20
2020-05-22 16:00:00 36.7 6 Sur 17 Sur 0 1009.7 -- 19
2020-05-22 15:00:00 35.9 5 Sudeste 17 Sudeste 0 1010.3 -- 19
2020-05-22 14:00:00 34.1 6 Este 15 Este 0 1010.9 -- 28
2020-05-22 13:00:00 32.1 5 Norte 17 Este 0 1011.4 -- 31
2020-05-22 12:00:00 30.2 10 Este 22 Este 0 1011.6 -- 38
2020-05-22 11:00:00 27.6 14 Este 21 Este 0 1011.6 -- 48
2020-05-22 10:00:00 24.5 12 Este 18 Este 0 1011.6 -- 56
2020-05-22 09:00:00 22.1 9 Este 13 Este 0 1011.2 -- 69
2020-05-22 08:00:00 18 4 Este 5 Este 0 1010.7 -- 87
2020-05-22 07:00:00 16.6 0 Calma 4 Sudoeste 0 1010.1 -- 87
2020-05-22 06:00:00 17.6 0 Calma 4 Sudoeste 0 1009.9 -- 85
2020-05-22 05:00:00 18.3 0 Calma 5 Sur 0 1009.8 -- 84
2020-05-22 04:00:00 19.1 5 Sur 9 Noroeste 0 1009.9 -- 80
2020-05-22 03:00:00 19.9 2 Noroeste 9 Oeste 0 1010 -- 78
2020-05-22 02:00:00 21.3 7 Oeste 15 Oeste 0 1009.9 -- 71
2020-05-22 01:00:00 22.3 11 Oeste 17 Sudoeste 0 1009.4 -- 67
2020-05-22 00:00:00 22.8 9 Sudoeste 18 Sudoeste 0 1009.5 2.3 57
2020-05-21 23:00:00 24.2 8 Sudoeste 9 Sudoeste 0 1008.8 -- 55
2020-05-21 22:00:00 26.8 6 Oeste 15 Oeste 0 1008 -- 40
2020-05-21 21:00:00 30.9 10 Oeste 15 Oeste 0 1007.2 -- 30
2020-05-21 20:00:00 34 9 Sudoeste 15 Sudoeste 0 1006.6 -- 22
2020-05-21 19:00:00 35.5 10 Sudoeste 18 Oeste 0 1006.4 -- 18
2020-05-21 18:00:00 35.9 7 Oeste 24 Oeste 0 1006.5 -- 16
2020-05-21 17:00:00 36 6 Sudoeste 18 Oeste 0 1006.7 -- 16
2020-05-21 16:00:00 35.4 6 Oeste 21 Sudoeste 0 1007.1 -- 18
2020-05-21 15:00:00 35.1 4 Sudeste 15 Este 0 1007.1 -- 20
2020-05-21 14:00:00 32.9 6 Nordeste 18 Este 0 1007.7 -- 26
2020-05-21 13:00:00 31.6 10 Este 21 Nordeste 0 1008.2 -0.3 32
2020-05-21 12:00:00 29.3 10 Este 18 Este 0 1008.4 -- 39
2020-05-21 11:00:00 26.8 10 Este 18 Nordeste 0 1008.5 -- 45
2020-05-21 10:00:00 24.3 9 Nordeste 15 Nordeste 0 1008.5 -- 54
2020-05-21 09:00:00 21 9 Este 15 Este 0 1008.2 -- 68
2020-05-21 08:00:00 17 0 Calma 2 Sudoeste 0 1007.9 -- 85
2020-05-21 07:00:00 16 0 Calma 2 Nordeste 0 1007.2 -- 85
2020-05-21 06:00:00 16.8 0 Calma 5 Sur 0 1006.9 -- 83
2020-05-21 05:00:00 17.7 0 Calma 8 Norte 0 1006.9 -- 80
2020-05-21 04:00:00 18.2 2 Sudeste 8 Sudeste 0 1006.6 -- 80
2020-05-21 03:00:00 19.1 7 Oeste 11 Sudoeste 0 1006.4 -- 74
2020-05-21 02:00:00 20.8 6 Oeste 13 Oeste 0 1006.5 -- 66
2020-05-21 01:00:00 21.6 9 Sudoeste 13 Oeste 0 1006.3 -- 62
2020-05-21 00:00:00 22.9 9 Sudoeste 15 Sur 0 1006 -- 57
2020-05-20 23:00:00 24.6 4 Oeste 13 Oeste 0 1005.5 -- 52
2020-05-20 22:00:00 25.7 11 Oeste 18 Oeste 0 1004.4 -- 47
2020-05-20 21:00:00 29.9 12 Oeste 22 Oeste 0 1003.8 -- 34
2020-05-20 20:00:00 32 13 Oeste 26 Sudoeste 0 1003.3 -- 28
2020-05-20 19:00:00 33.9 14 Sudoeste 28 Oeste 0 1003.3 -- 23
2020-05-20 18:00:00 34.6 14 Sudoeste 28 Sudoeste 0 1003.4 -- 20
2020-05-20 17:00:00 34.6 15 Sudoeste 26 Sudoeste 0 1003.6 -- 20
2020-05-20 16:00:00 34.5 11 Sudoeste 24 Sudoeste 0 1004.2 -- 19
2020-05-20 15:00:00 33.9 7 Sur 18 Sudoeste 0 1004.5 -- 20
2020-05-20 14:00:00 32.6 7 Este 15 Norte 0 1005 -- 25
2020-05-20 13:00:00 30.4 6 Nordeste 17 Este 0 1005.5 -- 27
2020-05-20 12:00:00 28.3 8 Este 17 Este 0 1005.9 -- 37
2020-05-20 11:00:00 25.7 9 Este 18 Nordeste 0 1006.1 -- 44
2020-05-20 10:00:00 22.9 13 Este 18 Este 0 1006 -- 56
2020-05-20 09:00:00 19.7 11 Este 17 Este 0 1006 -- 68
2020-05-20 08:00:00 16.9 6 Este 9 Este 0 1006 -- 82
2020-05-20 07:00:00 14.7 -- -- -- -- 0 1005.6 -- 88
2020-05-20 06:00:00 15 2 Sudoeste -- -- 0 1005.4 -- 85
2020-05-20 05:00:00 15.8 2 Este 5 Sudoeste 0 1005.5 -- 81
2020-05-20 04:00:00 16.9 4 Sudoeste 8 Sur 0 1005.6 -- 75
2020-05-20 03:00:00 17.8 5 Sudoeste 13 Oeste 0 1005.8 -- 73
2020-05-20 02:00:00 18.5 9 Oeste 11 Oeste 0 1006.1 -- 69
2020-05-20 01:00:00 18.2 6 Sudeste 18 Sur 0 1006 -- 71
2020-05-20 00:00:00 19.7 3 Oeste 11 Noroeste 0 1006 -- 68
2020-05-19 23:00:00 22.6 3 Sudoeste -- -- 0 1005.5 -- 56
2020-05-19 22:00:00 26.3 3 Oeste 8 Oeste 0 1004.9 -- 41
2020-05-19 21:00:00 30.7 5 Oeste 11 Sudoeste 0 1004.4 -- 28
2020-05-19 20:00:00 32.6 8 Sudoeste 17 Sudoeste 0 1004.4 -- 21
2020-05-19 19:00:00 33.4 5 Sudoeste 18 Sudoeste 0 1004.7 -- 19
2020-05-19 18:00:00 33.5 8 Sudoeste 18 Este 0 1005 -- 19
2020-05-19 17:00:00 33.3 8 Oeste 18 Sudoeste 0 1005.5 -- 19
2020-05-19 16:00:00 33 11 Oeste 21 Sudoeste 0 1006.1 -- 19
2020-05-19 15:00:00 32.3 4 Nordeste 26 Este 0 1006.7 -- 21
2020-05-19 14:00:00 30.8 6 Este 15 Nordeste 0 1007.4 -- 27
2020-05-19 13:00:00 29.2 8 Este 17 Este 0 1008.1 -- 35
2020-05-19 12:00:00 26.5 8 Este 17 Este 0 1008.7 -- 44
2020-05-19 11:00:00 24 10 Este 17 Este 0 1009 -- 52
2020-05-19 10:00:00 21 9 Este 15 Nordeste 0 1009.1 -- 61
2020-05-19 09:00:00 18.4 8 Este 11 Este 0 1009.1 -- 75
2020-05-19 08:00:00 14.3 0 Calma 4 Este 0 1008.8 -- 89
2020-05-19 07:00:00 13.1 3 Sur -- -- 0 1008.7 -- 89
2020-05-19 06:00:00 13.4 2 Sudoeste -- -- 0 1008.5 -- 88
2020-05-19 05:00:00 14.1 4 Sudoeste 5 Oeste 0 1008.8 -- 87
2020-05-19 04:00:00 15.3 5 Sur 8 Sudoeste 0 1009.1 -- 84
2020-05-19 03:00:00 15.8 3 Norte 11 Sur 0 1009 -- 84
2020-05-19 02:00:00 17 9 Sur 11 Sur 0 1009.4 -- 81
2020-05-19 01:00:00 16.9 6 Sudoeste 8 Sudoeste 0 1009.4 -- 81
2020-05-19 00:00:00 19.2 3 Oeste -- -- 0 1009.6 -- 70
2020-05-18 23:00:00 20.6 5 Sudoeste 8 Sur 0 1009.4 -- 65
2020-05-18 22:00:00 23 4 Noroeste 13 Oeste 0 1008.6 -- 56
2020-05-18 21:00:00 27.1 10 Oeste 15 Oeste 0 1008.1 -- 39
2020-05-18 20:00:00 29.5 9 Sudoeste 18 Oeste 0 1008.1 -- 32
2020-05-18 19:00:00 30.5 8 Sudoeste 18 Sudoeste 0 1008.2 -- 30
2020-05-18 18:00:00 30.4 9 Sur 21 Oeste 0 1008.6 -- 29
2020-05-18 17:00:00 30.4 7 Sudeste 17 Norte 0 1009.1 -- 29
2020-05-18 16:00:00 29.3 8 Noroeste 21 Sur 0 1009.9 -- 29
2020-05-18 15:00:00 29.4 9 Este 15 Este 0 1010.6 -- 27
2020-05-18 14:00:00 27.5 4 Nordeste 13 Nordeste 0 1011.1 -- 37
2020-05-18 13:00:00 25.6 6 Este 17 Este 0 1011.8 -- 46
2020-05-18 12:00:00 23.6 6 Este 17 Este 0 1012.3 -- 55
2020-05-18 11:00:00 21.4 8 Nordeste 15 Este 0 1012.6 -- 60
2020-05-18 10:00:00 19 9 Este 17 Este 0 1012.9 -- 72
2020-05-18 09:00:00 16.4 9 Este 15 Nordeste 0 1012.8 -- 83
2020-05-18 08:00:00 12.9 0 Calma 4 Sudoeste 0 1012.4 -- 93
2020-05-18 07:00:00 11.7 0 Calma 4 Este 0 1012 -- 93
2020-05-18 06:00:00 12 0 Calma 5 Sur 0 1011.8 -- 92
2020-05-18 05:00:00 12.5 4 Oeste 5 Oeste 0 1011.8 -- 90
2020-05-18 04:00:00 13.3 0 Calma 5 Sudeste 0 1011.8 -- 89
2020-05-18 03:00:00 14 0 Calma 8 Sur 0 1011.9 -- 88
2020-05-18 02:00:00 15 4 Sur 8 Sur 0 1012.1 -- 84
2020-05-18 01:00:00 15.9 5 Sur 9 Sur 0 1012.3 -- 82
2020-05-18 00:00:00 17.1 8 Sudoeste 13 Sudoeste 0 1012.2 -- 79
2020-05-17 23:00:00 18.5 8 Oeste 15 Sudoeste 0 1011.7 -- 73
2020-05-17 22:00:00 20.2 6 Sudoeste 15 Sur 0 1010.4 -- 63
2020-05-17 21:00:00 23.8 3 Sudoeste 11 Sudoeste 0 1009.7 -- 55
2020-05-17 20:00:00 22.9 6 Sudoeste 8 Sudoeste 0 1009.3 -- 54
2020-05-17 19:00:00 23.4 4 Nordeste 18 Norte 0 1009.1 -- 43
2020-05-17 18:00:00 22.2 13 Norte 28 Norte 0 1008.8 -- 53
2020-05-17 17:00:00 21.2 13 Noroeste 35 Noroeste 0 1009.1 -- 56
2020-05-17 16:00:00 26.8 8 Sur 17 Sur 0 1008.9 -- 36
2020-05-17 15:00:00 26 6 Sur 18 Este 0 1009.1 -- 38
2020-05-17 14:00:00 23.9 6 Norte 22 Este 0 1010.2 -- 49
2020-05-17 13:00:00 23.7 11 Este 21 Este 0 1010.6 -- 51
2020-05-17 12:00:00 22.6 6 Este 17 Nordeste 0 1010.6 -- 55
2020-05-17 11:00:00 21.6 8 Este 15 Este 0 1010.6 -- 59
2020-05-17 10:00:00 18.9 6 Este 11 Nordeste 0 1010.4 -- 74
2020-05-17 09:00:00 17.2 5 Nordeste 13 Sudeste 0 1010.3 -- 82
2020-05-17 08:00:00 15.3 8 Sudeste 15 Sudeste 0 1009.8 -- 90
2020-05-17 07:00:00 15.8 8 Sudeste 9 Sudeste 0 1009.4 -- 90
2020-05-17 06:00:00 16 3 Este 5 Sur 0 1009.1 -- 90
2020-05-17 05:00:00 16 2 Oeste 8 Oeste 0 1008.9 -- 90
2020-05-17 04:00:00 16.1 0 Calma 5 Noroeste 0 1008.8 -- 92
2020-05-17 03:00:00 15.9 0 Calma 5 Norte 0 1009.2 -- 93
2020-05-17 02:00:00 15.7 5 Nordeste 15 Sudoeste 0 1009.4 -- 92
2020-05-17 01:00:00 16 8 Sudoeste 15 Sudoeste 0.3 1009.1 -- 90
2020-05-17 00:00:00 17 8 Sudoeste 11 Sudoeste 0 1009.4 -- 85
2020-05-16 23:00:00 17.2 7 Oeste 18 Oeste 0 1008.8 -- 78
2020-05-16 22:00:00 17.8 11 Oeste 26 Sudoeste 0 1007.4 -- 73
2020-05-16 21:00:00 19.2 14 Sudoeste 32 Sur 0 1007 -- 66
2020-05-16 20:00:00 22 24 Sudoeste 39 Sur 0 1005.8 -- 52
2020-05-16 19:00:00 23.8 11 Oeste 18 Oeste 0 1005.2 -- 39
2020-05-16 18:00:00 23.9 8 Noroeste 22 Norte 0 1004.9 -- 37
2020-05-16 17:00:00 25.6 6 Noroeste 28 Norte 0 1004.8 -- 32
2020-05-16 16:00:00 24 13 Norte 35 Norte 0 1005.1 -- 41
2020-05-16 15:00:00 22.7 13 Noroeste 39 Noroeste 0 1005.5 -- 46
2020-05-16 14:00:00 23.9 7 Sur 15 Sudoeste 0 1005.4 -- 41
2020-05-16 13:00:00 22.1 5 Oeste 13 Este 0 1005.9 -- 51
2020-05-16 12:00:00 19.9 5 Norte 13 Este 0 1006.1 -- 60
2020-05-16 11:00:00 17.9 8 Este 15 Este 0 1006 -- 70
2020-05-16 10:00:00 14.6 8 Este 13 Este 0 1005.5 -- 86
2020-05-16 09:00:00 12.9 0 Calma 8 Este 0 1005.2 -- 95
2020-05-16 08:00:00 11.3 5 Este 8 Este 0 1004.7 -- 95
2020-05-16 07:00:00 10.8 0 Calma 4 Noroeste 0 1004 -- 94
2020-05-16 06:00:00 11.3 3 Sur 5 Sur 0 1003.5 -- 93
2020-05-16 05:00:00 11.7 2 Sudeste 8 Norte 0 1003.4 -- 92
2020-05-16 04:00:00 11.8 4 Noroeste 11 Sur 0 1003.3 -- 92
2020-05-16 03:00:00 12.7 6 Sur 9 Sur 0 1003.5 -- 91
2020-05-16 02:00:00 13.4 6 Sudoeste 11 Oeste 0 1003.8 -- 90
2020-05-16 01:00:00 14.3 10 Oeste 15 Sudoeste 0 1003.6 -- 86
2020-05-16 00:00:00 15.1 12 Sudoeste 18 Oeste 0 1003.5 -- 83
2020-05-15 23:00:00 16.2 11 Sudoeste 26 Sudoeste 0 1002.8 -- 77
2020-05-15 22:00:00 18.1 15 Sur 24 Sur 0 1002 -- 67
2020-05-15 21:00:00 19.6 7 Noroeste 21 Norte 0 1001.3 -- 53
2020-05-15 20:00:00 21.7 10 Norte 18 Norte 0 1000.6 -- 45
2020-05-15 19:00:00 22.1 12 Norte 26 Norte 0 1000.3 -- 37
2020-05-15 18:00:00 22.2 17 Norte 26 Norte 0 1000.2 -- 39
2020-05-15 17:00:00 22.3 10 Este 26 Nordeste 0 1000.2 -- 37
2020-05-15 16:00:00 21.2 17 Nordeste 35 Este 0 1000.7 -- 44
2020-05-15 15:00:00 20.1 26 Nordeste 54 Este 0 1000.9 -- 48
2020-05-15 14:00:00 23.1 7 Nordeste 22 Este 0 1000.8 -- 39
2020-05-15 13:00:00 22 14 Este 24 Este 0 1001.4 -- 43
2020-05-15 12:00:00 20.6 13 Este 22 Este 0 1001.8 -- 55
2020-05-15 11:00:00 18.2 15 Este 24 Este 0 1001.9 -- 66
2020-05-15 10:00:00 15.8 18 Nordeste 26 Este 0 1002 -- 75
2020-05-15 09:00:00 13.5 8 Este 13 Este 0 1001.7 -- 89
2020-05-15 08:00:00 10.6 7 Este 15 Este 0 1001.7 -- 95
2020-05-15 07:00:00 9.5 5 Sudeste 9 Sudeste 0 1001 -- 94
2020-05-15 06:00:00 10.3 9 Este 15 Este 0 1000.5 -- 94
2020-05-15 05:00:00 11.2 12 Este 18 Este 0 1000.2 -- 95
2020-05-15 04:00:00 11.1 9 Este 13 Este 0 1000.2 -- 94
2020-05-15 03:00:00 11.7 8 Este 13 Este 0 1000.1 -- 94
2020-05-15 02:00:00 11.6 7 Este 9 Este 0 1000 -- 91
2020-05-15 01:00:00 12.6 3 Este 9 Nordeste 0 1000.4 -- 90
2020-05-15 00:00:00 12.7 7 Este 8 Este 0 1000.6 -- 89
2020-05-14 23:00:00 13.7 5 Este 9 Noroeste 0 1000 -- 84
2020-05-14 22:00:00 14.3 6 Oeste 22 Oeste 0 999.6 -- 81
2020-05-14 21:00:00 15.4 13 Oeste 32 Oeste 0 998.5 -- 76
2020-05-14 20:00:00 17.2 14 Oeste 32 Oeste 0 997.7 -- 73
2020-05-14 19:00:00 17.2 25 Sudoeste 61 Sudoeste 0 997.2 -- 69
2020-05-14 18:00:00 19.4 35 Sudoeste 76 Sudoeste 0 996.3 -- 52
2020-05-14 17:00:00 19.6 30 Sudoeste 48 Sudoeste 0 995.9 -- 56
2020-05-14 16:00:00 19.9 32 Sudoeste 50 Sudoeste 0.1 995.7 -- 51
2020-05-14 15:00:00 18.3 24 Sudoeste 42 Sudoeste 0 996.2 -- 60
2020-05-14 14:00:00 17.9 30 Sudoeste 46 Sudoeste 0 996.4 -- 60
2020-05-14 13:00:00 16.6 30 Sudoeste 52 Sudoeste 0 996.9 -- 67
2020-05-14 12:00:00 16.2 18 Sudoeste 28 Sudoeste 0 996.4 -- 72
2020-05-14 11:00:00 14.6 8 Sudoeste 18 Sudoeste 0 996.4 -- 82
2020-05-14 10:00:00 14.4 4 Nordeste 11 Este 0 996.3 -- 81
2020-05-14 09:00:00 12.7 8 Este 11 Este 0 996.2 -- 95
2020-05-14 08:00:00 11.6 7 Sudeste 11 Este 0 995.9 -- 94
2020-05-14 07:00:00 12.2 2 Nordeste 8 Este 0.9 995.6 -- 94
2020-05-14 06:00:00 12.1 2 Este 8 Este 0 995.5 -- 94
2020-05-14 05:00:00 11.9 5 Nordeste 8 Nordeste 0 995.6 -- 93
2020-05-14 04:00:00 12.3 4 Sudoeste 9 Oeste 0 996.1 -- 92
2020-05-14 03:00:00 12.7 6 Sudoeste 13 Oeste 0 996.3 -- 92
2020-05-14 02:00:00 12.6 5 Oeste 17 Sudoeste 0 996.6 -- 91
2020-05-14 01:00:00 12.9 9 Sudoeste 15 Oeste 0 997.1 -- 91
2020-05-14 00:00:00 12.9 10 Sudoeste 18 Oeste 0 996.5 -- 91
2020-05-13 23:00:00 13.1 8 Sur 21 Oeste 0 996.1 -- 91
2020-05-13 22:00:00 13.6 12 Oeste 30 Sudoeste 0.6 994.6 -- 89
2020-05-13 21:00:00 14.3 23 Sudoeste 48 Sudoeste 2.8 995.8 -- 87
2020-05-13 20:00:00 19.6 14 Sudoeste 33 Oeste 0 993.6 -- 60
2020-05-13 19:00:00 22.3 6 Sudoeste 15 Sur 0 993 -- 42
2020-05-13 18:00:00 22.5 8 Sur 17 Sudeste 0 993.3 -- 41
2020-05-13 17:00:00 22.6 4 Nordeste 15 Sudeste 0 993.8 -- 39
2020-05-13 16:00:00 22 5 Norte 13 Sudeste 0 994.9 -- 45
2020-05-13 15:00:00 20.7 4 Sudoeste 18 Sur 0 995.9 -- 49
2020-05-13 14:00:00 20.1 10 Sur 18 Sur 0 996.8 -- 48
2020-05-13 13:00:00 19.9 9 Sudoeste 17 Sudoeste 0 997.3 -- 51
2020-05-13 12:00:00 18.9 10 Noroeste 18 Noroeste 0 997.8 -- 63
2020-05-13 11:00:00 17.7 4 Sur 11 Sur 0 998.2 -- 68
2020-05-13 10:00:00 15.8 5 Nordeste 11 Este 0 998.5 -- 77
2020-05-13 09:00:00 13.1 0 Calma 5 Este 0 998.6 -- 90
2020-05-13 08:00:00 11.2 0 Calma 4 Norte 0 998.6 -- 93
2020-05-13 07:00:00 11.1 0 Calma 5 Oeste 0 998.2 -- 92
2020-05-13 06:00:00 11.5 3 Sudoeste 9 Sudoeste 0 998.2 -- 91
2020-05-13 05:00:00 12.3 8 Sur 11 Sur 0 998.4 -- 92
2020-05-13 04:00:00 13.1 6 Sudoeste 17 Oeste 0 998.5 -- 89
2020-05-13 03:00:00 13.2 12 Oeste 18 Oeste 0 998.8 -- 89
2020-05-13 02:00:00 13.6 11 Sudoeste 21 Sudoeste 0 999.3 -- 88
2020-05-13 01:00:00 13.7 12 Sudoeste 17 Sudoeste 0 999.4 -- 89
2020-05-13 00:00:00 13.7 6 Oeste 13 Sudoeste 0 999.6 -- 88
2020-05-12 23:00:00 13.5 6 Sudoeste 9 Sudoeste 0 999.3 -- 91
2020-05-12 22:00:00 14.4 4 Sur 9 Sudoeste 0 998.7 -- 87
2020-05-12 21:00:00 15.9 4 Sudoeste 17 Sudoeste 0 998.2 -- 82
2020-05-12 20:00:00 15.6 10 Oeste 21 Oeste 0 997.8 -- 81
2020-05-12 19:00:00 14.8 10 Oeste 37 Oeste 0 997.8 -- 84
2020-05-12 18:00:00 15.7 15 Oeste 32 Oeste 0 997.8 -- 83
2020-05-12 17:00:00 16.2 19 Sudoeste 30 Oeste 0.6 997.4 -- 81
2020-05-12 16:00:00 19.9 8 Este 17 Este 0 997.5 -- 55
2020-05-12 15:00:00 18.9 6 Este 13 Este 0 998.5 -- 61
2020-05-12 14:00:00 16.8 4 Este 15 Oeste 0 999.5 -- 71
2020-05-12 13:00:00 14.8 10 Oeste 15 Oeste 0 1000.2 -- 84
2020-05-12 12:00:00 14.3 10 Oeste 18 Oeste 0 1000.5 -- 88
2020-05-12 11:00:00 14.1 4 Noroeste 24 Este 0.2 1000.4 -- 82
2020-05-12 10:00:00 13.7 21 Este 48 Sudeste 0.3 998.8 -- 85
2020-05-12 09:00:00 14.2 7 Sudeste 15 Sur 0 1000.3 -- 89
2020-05-12 08:00:00 13.8 6 Este 18 Este 0 999.8 -- 91
2020-05-12 07:00:00 13.6 11 Este 15 Este 0 999.2 -- 92
2020-05-12 06:00:00 13.6 6 Este 9 Este 0 998.9 -- 92
2020-05-12 05:00:00 13.5 8 Norte 17 Sudeste 0 999.6 -- 92
2020-05-12 04:00:00 13.4 4 Este 11 Sudeste 0 1000.3 -- 93
2020-05-12 03:00:00 13.5 5 Norte 8 Sur 0 1000 -- 92
2020-05-12 02:00:00 13.9 4 Sur 9 Oeste 0 1001.4 -- 90
2020-05-12 01:00:00 14.4 6 Oeste 9 Oeste 0 1001.8 -- 89
2020-05-12 00:00:00 15.2 8 Sudoeste 15 Sudoeste 0 1002.1 -- 84
2020-05-11 23:00:00 16.3 11 Sudoeste 15 Oeste 0 1001.7 -- 80
2020-05-11 22:00:00 17.2 9 Sudoeste 22 Sudoeste 0 1001.3 -- 72
2020-05-11 21:00:00 18.9 15 Sudoeste 26 Sudoeste 0 1000.9 -- 61
2020-05-11 20:00:00 20.3 17 Sudoeste 41 Sudoeste 0 1000.7 -- 55
2020-05-11 19:00:00 21.5 28 Sudoeste 46 Sudoeste 0 1000.8 -- 47
2020-05-11 18:00:00 22.8 26 Sudoeste 52 Oeste 0 1000.8 -- 45
2020-05-11 17:00:00 22.8 30 Sudoeste 52 Oeste 0 1000.6 -- 47
2020-05-11 16:00:00 22.4 26 Sudoeste 42 Sudoeste 0 1000.9 -- 57
2020-05-11 15:00:00 21.3 21 Sudoeste 39 Sudoeste 0 1000.8 -- 66
2020-05-11 14:00:00 19.3 14 Sudoeste 30 Oeste 0 1001.4 -- 82
2020-05-11 13:00:00 16.9 11 Sudoeste 32 Oeste 0.7 1001.7 -- 90
2020-05-11 12:00:00 15.8 22 Oeste 46 Sudoeste 0.8 1001.7 -- 86
2020-05-11 11:00:00 18.2 25 Sudoeste 37 Sudoeste 0 1000.6 -- 75
2020-05-11 10:00:00 17.4 22 Sudoeste 35 Sudoeste 0 1000.6 -- 82
2020-05-11 09:00:00 15.7 3 Sudoeste 9 Sudoeste 0 1000.8 -- 89
2020-05-11 08:00:00 14.4 4 Noroeste 9 Sudoeste 0.8 1000.8 -- 93
2020-05-11 07:00:00 14.5 6 Sudoeste 11 Sudoeste 0 1000.7 -- 91
2020-05-11 06:00:00 14.5 8 Sudoeste 21 Sudoeste 0 1001.1 -- 92
2020-05-11 05:00:00 14.6 13 Sudoeste 22 Oeste 0 1001.3 -- 91
2020-05-11 04:00:00 14.6 11 Sudoeste 21 Sudoeste 0 1001.2 -- 92
2020-05-11 03:00:00 14.5 12 Sudoeste 18 Oeste 0 1001.4 -- 92
2020-05-11 02:00:00 14.6 13 Sudoeste 21 Sudoeste 0 1001.7 -- 92
2020-05-11 01:00:00 15.1 10 Oeste 18 Sudoeste 0 1001.8 -- 92
2020-05-11 00:00:00 15.1 8 Oeste 26 Sudoeste 1.2 1001.9 -- 93
2020-05-10 23:00:00 15.8 18 Sudoeste 37 Sudoeste 0 1001.5 -- 85
2020-05-10 22:00:00 16.2 14 Sudoeste 37 Sudoeste 0 1000.7 -- 80
2020-05-10 21:00:00 16.9 25 Sudoeste 39 Sudoeste 0 1000.1 -- 83
2020-05-10 20:00:00 19.2 12 Oeste 39 Oeste 0 999.5 -- 66
2020-05-10 19:00:00 20 21 Oeste 35 Oeste 0 999 -- 58
2020-05-10 18:00:00 21.9 22 Oeste 37 Oeste 0 998.7 -- 50
2020-05-10 17:00:00 21.2 20 Oeste 48 Oeste 0 998.8 -- 53
2020-05-10 16:00:00 21.5 23 Oeste 45 Oeste 0 998.9 -- 50
2020-05-10 15:00:00 21.5 21 Sudoeste 41 Sudoeste 0 999.1 -- 54
2020-05-10 14:00:00 20.3 15 Sudoeste 30 Sudoeste 0.1 999.5 -- 66
2020-05-10 13:00:00 17.2 17 Sudoeste 30 Sudoeste 0 1000.2 -- 73
2020-05-10 12:00:00 16.7 11 Oeste 24 Oeste 2.1 1000.5 -- 84
2020-05-10 11:00:00 15.5 10 Oeste 17 Noroeste 0.6 1000.8 -- 89
2020-05-10 10:00:00 15.3 9 Oeste 15 Oeste 0 1000.9 -- 87
2020-05-10 09:00:00 15.5 9 Sudoeste 15 Oeste 0 1000.7 -- 88
2020-05-10 08:00:00 13.3 7 Oeste 11 Sudoeste 0 1000.3 -- 95
2020-05-10 07:00:00 13.3 8 Oeste 13 Sudoeste 0 999.6 -- 95
2020-05-10 06:00:00 13.3 7 Oeste 11 Oeste 0 999.5 -- 95
2020-05-10 05:00:00 12.6 7 Oeste 11 Oeste 0 999.4 -- 93
2020-05-10 04:00:00 13.5 5 Oeste 21 Sudoeste 0.1 999.9 -- 92
2020-05-10 03:00:00 14.3 15 Sudoeste 22 Sur 5.2 1000 -- 93
2020-05-10 02:00:00 15.3 14 Sudoeste 37 Oeste 0 1000.5 -- 90
2020-05-10 01:00:00 15.4 25 Oeste 41 Sudoeste 0 1000.7 -- 89
2020-05-10 00:00:00 15.6 17 Sudoeste 30 Oeste 0 1000.8 -- 90
2020-05-09 23:00:00 15.6 7 Oeste 17 Oeste 0 1000.8 -- 91
2020-05-09 22:00:00 15.8 12 Oeste 39 Oeste 0.5 1000.9 -- 88
2020-05-09 21:00:00 19.2 20 Oeste 42 Oeste 0 1000.5 -- 61
2020-05-09 20:00:00 21 20 Oeste 37 Oeste 0 1000 -- 48
2020-05-09 19:00:00 22.7 24 Sudoeste 41 Oeste 0 999.8 -- 41
2020-05-09 18:00:00 23.5 23 Sudoeste 37 Sudoeste 0 999.9 -- 39
2020-05-09 17:00:00 24 25 Sudoeste 39 Sudoeste 0 1000.3 -- 38
2020-05-09 16:00:00 23.3 21 Sudoeste 37 Sudoeste 0 1001.2 -- 43
2020-05-09 15:00:00 23 20 Sudoeste 39 Sudoeste 0 1001.7 -- 43
2020-05-09 14:00:00 23.3 20 Sudoeste 33 Sudoeste 0 1002.4 -- 43
2020-05-09 13:00:00 21.4 14 Oeste 33 Sudoeste 0 1003.1 -- 50
2020-05-09 12:00:00 20.7 16 Oeste 30 Sudoeste 0 1003.7 -- 53
2020-05-09 11:00:00 19.1 13 Oeste 26 Sudoeste 0 1003.9 -- 63
2020-05-09 10:00:00 18.7 13 Sudoeste 24 Oeste 0 1004.2 -- 65
2020-05-09 09:00:00 17 13 Oeste 18 Oeste 0 1004.1 -- 76
2020-05-09 08:00:00 16.4 10 Oeste 17 Oeste 0 1003.7 -- 79
2020-05-09 07:00:00 16.5 10 Oeste 18 Oeste 0 1003.3 -- 78
2020-05-09 06:00:00 16.6 13 Oeste 18 Oeste 0 1003.6 -- 79
2020-05-09 05:00:00 16.6 6 Oeste 13 Sudoeste 0 1003.8 -- 81
2020-05-09 04:00:00 16.6 9 Sudoeste 22 Sudoeste 0 1004.2 -- 79
2020-05-09 03:00:00 16.7 14 Oeste 26 Oeste 0 1004.8 -- 79
2020-05-09 02:00:00 16.8 13 Sudoeste 24 Sudoeste 0 1005.1 -- 78
2020-05-09 01:00:00 17.7 15 Sudoeste 28 Sudoeste 0 1004.7 -- 75
2020-05-09 00:00:00 18.6 12 Sudoeste 26 Sudoeste 0 1004.6 -- 69
2020-05-08 23:00:00 19.9 16 Sudoeste 33 Oeste 0 1003.8 -- 66
2020-05-08 22:00:00 21.6 22 Oeste 35 Sudoeste 0 1002.8 -- 63
2020-05-08 21:00:00 23.6 19 Oeste 37 Oeste 0 1002 -- 58
2020-05-08 20:00:00 25.8 22 Oeste 33 Oeste 0 1001.3 -- 51
2020-05-08 19:00:00 27.2 22 Oeste 37 Oeste 0 1001.2 -- 46
2020-05-08 18:00:00 28.6 22 Oeste 35 Oeste 0 1001.1 -- 34
2020-05-08 17:00:00 29 21 Oeste 37 Sudoeste 0 1001.5 -- 33
2020-05-08 16:00:00 29.8 17 Oeste 32 Oeste 0 1001.9 -- 28
2020-05-08 15:00:00 29.5 5 Sudoeste 21 Oeste 0 1002.1 -- 29
2020-05-08 14:00:00 28.4 13 Sudoeste 24 Oeste 0 1002.7 -- 31
2020-05-08 13:00:00 27.4 7 Sudoeste 15 Sudoeste 0 1003.3 -- 35
2020-05-08 12:00:00 25.8 6 Oeste 13 Noroeste 0 1003.6 -- 42
2020-05-08 11:00:00 23.8 4 Sur 11 Sudoeste 0 1003.8 -- 46
2020-05-08 10:00:00 20.9 2 Este 9 Nordeste 0 1003.8 -- 57
2020-05-08 09:00:00 16.9 0 Calma 4 Oeste 0 1003.7 -- 77
2020-05-08 08:00:00 12.9 0 Calma 5 Sur 0 1003.5 -- 86
2020-05-08 07:00:00 12.8 0 Calma 9 Sudeste 0 1003.3 -- 87
2020-05-08 06:00:00 13.5 2 Sudoeste 8 Oeste 0 1003.1 -- 83
2020-05-08 05:00:00 14.4 5 Sur 8 Sur 0 1003.4 -- 80
2020-05-08 04:00:00 15.6 3 Sudoeste 11 Sudoeste 0 1003.5 -- 75
2020-05-08 03:00:00 16.3 3 Sur 11 Sur 0 1003.6 -- 73
2020-05-08 02:00:00 17.1 8 Sudoeste 13 Sur 0 1004.2 -- 69
2020-05-08 01:00:00 17.9 9 Sur 13 Sudoeste 0 1004.1 -- 68
2020-05-08 00:00:00 18.6 9 Sudoeste 15 Oeste 0 1003.7 -- 64
2020-05-07 23:00:00 20.6 8 Oeste 17 Oeste 0 1003.1 -- 55
2020-05-07 22:00:00 22.1 9 Oeste 18 Oeste 0 1002.2 -- 50
2020-05-07 21:00:00 25 13 Oeste 24 Sudoeste 0 1001.5 -- 44
2020-05-07 20:00:00 28.1 13 Sudoeste 22 Oeste 0 1001 -- 37
2020-05-07 19:00:00 29.5 14 Oeste 30 Oeste 0 1001 -- 33
2020-05-07 18:00:00 30.1 16 Oeste 28 Oeste 0 1000.8 -- 34
2020-05-07 17:00:00 29.9 10 Oeste 18 Sudoeste 0 1000.9 -- 33
2020-05-07 16:00:00 29.8 9 Sudoeste 18 Sudoeste 0 1001.4 -- 32
2020-05-07 15:00:00 28.4 8 Oeste -- -- -- 1001.9 -- 36
2020-05-07 14:00:00 27.3 8 Sudeste 17 Nordeste 0 1001.9 -- 39
2020-05-07 13:00:00 26.3 9 Este 15 Este 0 1001.8 -- 41
2020-05-07 12:00:00 24.5 10 Este 21 Este 0 1002.3 -- 47
2020-05-07 11:00:00 22.4 9 Este 13 Este 0 1002.2 -- 55
2020-05-07 10:00:00 19.4 9 Este 17 Este 0 1002.5 -- 67
2020-05-07 09:00:00 16.7 3 Sur 5 Sudoeste 0 1002.6 -- 86
2020-05-07 08:00:00 14.9 5 Sudeste 9 Sudeste 0 1002.4 -- 89
2020-05-07 07:00:00 14.3 3 Noroeste 5 Norte 0 1002.1 -- 88
2020-05-07 06:00:00 14.8 0 Calma 8 Sur 0 1002.2 -- 85
2020-05-07 05:00:00 15.3 -- -- -- -- 0 1002.2 -- 83
2020-05-07 04:00:00 16.1 3 Noroeste 9 Sur 0 1002.1 -- 79
2020-05-07 03:00:00 16.1 5 Sur 11 Sur 0 1002.3 -- 79
2020-05-07 02:00:00 17.5 2 Oeste 9 Sudoeste 0 1002.8 -- 74
2020-05-07 01:00:00 17.6 5 Sudoeste 8 Sudoeste 0 1002.8 -- 79
2020-05-07 00:00:00 18.6 3 Sur 8 Noroeste 0 1003 -- 76
2020-05-06 23:00:00 19.9 4 Sur 8 Sur 0 1003.3 -- 70
2020-05-06 22:00:00 22.5 4 Este 8 Noroeste 0 1002.9 -- 60
2020-05-06 21:00:00 27.1 5 Sur 9 Sudoeste 0 1002.7 -- 43
2020-05-06 20:00:00 29.5 7 Sudoeste 13 Sur 0 1002.5 -- 34
2020-05-06 19:00:00 29.9 6 Sur 24 Sudoeste 0 1002.9 -- 29
2020-05-06 18:00:00 30.6 6 Sur 22 Sudoeste 0 1002.9 -- 29
2020-05-06 17:00:00 29.7 5 Nordeste 21 Nordeste 0 1003.5 -- 28
2020-05-06 16:00:00 29.4 8 Nordeste 18 Este 0 1004.5 -- 29
2020-05-06 15:00:00 28.6 9 Sudeste 22 Este 0 1005.2 -- 31
2020-05-06 14:00:00 28 10 Este 21 Nordeste 0 1005.9 -- 32
2020-05-06 13:00:00 26.6 12 Este 22 Este 0 1006.4 -- 32
2020-05-06 12:00:00 23.6 8 Este 13 Este 0 1006.9 -- 47
2020-05-06 11:00:00 21.2 4 Sudeste 8 Este 0 1007.4 -- 56
2020-05-06 10:00:00 17.6 2 Sudoeste 8 Sur 0 1007.3 -- 72
2020-05-06 09:00:00 14.8 0 Calma 8 Norte 0 1007.3 -- 87
2020-05-06 08:00:00 12.3 4 Norte 8 Norte 0 1007 -- 92
2020-05-06 07:00:00 12.1 5 Sur 8 Sur 0 1006.7 -- 91
2020-05-06 06:00:00 12.6 5 Sur 9 Sur 0 1006.5 -- 91
2020-05-06 05:00:00 13.3 5 Sudoeste -- -- 0 1006.3 -- 89
2020-05-06 04:00:00 14.4 3 Sur 5 Sudeste 0 1006.1 -- 85
2020-05-06 03:00:00 15.1 4 Sur 8 Oeste 0 1006.1 -- 83
2020-05-06 02:00:00 16.4 6 Sur 13 Sudoeste 0 1006.2 -- 77
2020-05-06 01:00:00 17.1 6 Sur 9 Sur 0 1006 -- 73
2020-05-06 00:00:00 17.7 3 Sudeste 11 Nordeste 0 1005.6 -- 74
2020-05-05 23:00:00 19 5 Sudoeste -- -- 0 1005.3 -- 68
2020-05-05 22:00:00 21.4 4 Sur 18 Sudoeste 0 1004.5 -- 56
2020-05-05 21:00:00 24.3 12 Sudoeste 17 Sudoeste 0 1003.7 -- 44
2020-05-05 20:00:00 26.9 12 Sudoeste 21 Sudoeste 0 1003.5 -- 38
2020-05-05 19:00:00 27.9 14 Sudoeste 21 Sudoeste 0 1003.6 -- 37
2020-05-05 18:00:00 28.3 12 Sudoeste 24 Sudoeste 0 1003.7 -- 36
2020-05-05 17:00:00 28 14 Sudoeste 22 Sudoeste 0 1003.9 -- 37
2020-05-05 16:00:00 27.8 9 Sudoeste 21 Oeste 0 1004.3 -- 34
2020-05-05 15:00:00 26.2 7 Oeste 17 Sudoeste 0 1004.9 -- 41
2020-05-05 14:00:00 26.2 8 Sur 18 Oeste 0 1005.4 -- 44
2020-05-05 13:00:00 24.5 6 Norte 18 Este 0 1005.6 -- 54
2020-05-05 12:00:00 23.1 9 Este 17 Este 0 1006 -- 62
2020-05-05 11:00:00 20.7 6 Este 11 Este 0 1006.1 -- 76
2020-05-05 10:00:00 18 4 Sur 9 Sur 0 1005.9 -- 90
2020-05-05 09:00:00 16.9 5 Sur 9 Sur 0 1006.1 -- 94
2020-05-05 08:00:00 16.8 6 Sudoeste 9 Sudoeste 0.1 1006 -- 94
2020-05-05 07:00:00 17.1 6 Sur 9 Sudoeste 0.1 1005.6 -- 92
2020-05-05 06:00:00 17.4 4 Sudoeste 17 Sudoeste 0 1005.6 -- 88
2020-05-05 05:00:00 17.7 12 Sudoeste 17 Sudoeste 0 1005.6 -- 87
2020-05-05 04:00:00 17.9 10 Oeste 21 Sudoeste 0 1005.4 -- 86
2020-05-05 03:00:00 18 14 Oeste 22 Sudoeste 0 1005.9 -- 86
2020-05-05 02:00:00 17.9 11 Sudoeste 21 Sudoeste 0 1006 -- 86
2020-05-05 01:00:00 17.6 11 Sudoeste 18 Sudoeste 0 1005.8 -- 86
2020-05-05 00:00:00 18.6 14 Sudoeste 22 Sudoeste 0 1005.4 -- 80